Time;durP1;ratioP1;P1;durP2;ratioP2;P2;SDS_P1;SDS_P2;PMS_P1;PMS_P2;Temp;Humidity;BMP_temperature;BMP_pressure;BME280_temperature;BME280_humidity;BME280_pressure;Samples;Min_cycle;Max_cycle;Signal;HPM_P1;HPM_P2
2021/09/13 00:00:12;;;;;;;;;;;13.70;99.90;;;;;;5137996;27;19927;-84
2021/09/13 00:02:39;;;;;;;;;;;13.70;99.90;;;;;;5137844;27;20018;-83
2021/09/13 00:05:06;;;;;;;;;;;13.70;99.90;;;;;;5138187;27;19983;-84
2021/09/13 00:07:34;;;;;;;;;;;13.70;99.90;;;;;;5137976;27;20303;-84
2021/09/13 00:10:01;;;;;;;;;;;13.60;99.90;;;;;;5137875;27;19924;-83
2021/09/13 00:12:28;;;;;;;;;;;13.60;99.90;;;;;;5137774;27;19924;-83
2021/09/13 00:14:57;;;;;;;;;;;13.60;99.90;;;;;;5137754;27;20254;-82
2021/09/13 00:17:23;;;;;;;;;;;13.60;99.90;;;;;;5138022;27;20308;-82
2021/09/13 00:19:50;;;;;;;;;;;13.60;99.90;;;;;;5137787;27;19929;-85
2021/09/13 00:22:17;;;;;;;;;;;13.60;99.90;;;;;;5137646;27;19924;-85
2021/09/13 00:24:45;;;;;;;;;;;13.60;99.90;;;;;;5137546;27;19974;-86
2021/09/13 00:27:12;;;;;;;;;;;13.50;99.90;;;;;;5137575;27;19923;-85
2021/09/13 00:29:39;;;;;;;;;;;13.50;99.90;;;;;;5137485;27;19931;-85
2021/09/13 00:32:08;;;;;;;;;;;13.50;99.90;;;;;;5137382;27;19924;-85
2021/09/13 00:34:36;;;;;;;;;;;13.40;99.90;;;;;;5137528;27;19927;-85
2021/09/13 00:37:04;;;;;;;;;;;13.40;99.90;;;;;;5137465;27;19931;-85
2021/09/13 00:39:33;;;;;;;;;;;13.40;99.90;;;;;;5137491;27;20029;-84
2021/09/13 00:42:03;;;;;;;;;;;13.40;99.90;;;;;;5137324;27;19924;-84
2021/09/13 00:44:30;;;;;;;;;;;13.30;99.90;;;;;;5137185;27;20404;-85
2021/09/13 00:46:59;;;;;;;;;;;13.30;99.90;;;;;;5137123;27;19923;-84
2021/09/13 00:49:27;;;;;;;;;;;13.30;99.90;;;;;;5137149;27;20331;-85
2021/09/13 00:51:55;;;;;;;;;;;13.30;99.90;;;;;;5137077;27;19924;-85
2021/09/13 00:54:23;;;;;;;;;;;13.30;99.90;;;;;;5137015;27;19923;-84
2021/09/13 00:56:51;;;;;;;;;;;13.30;99.90;;;;;;5137300;27;19972;-85
2021/09/13 00:59:22;;;;;;;;;;;13.30;99.90;;;;;;5137421;27;19923;-85
2021/09/13 01:01:52;;;;;;;;;;;13.20;99.90;;;;;;5136937;27;20018;-85
2021/09/13 01:04:20;;;;;;;;;;;13.30;99.90;;;;;;5136858;27;19966;-85
2021/09/13 01:06:48;;;;;;;;;;;13.30;99.90;;;;;;5136740;27;20236;-85
2021/09/13 01:09:15;;;;;;;;;;;13.30;99.90;;;;;;5136386;27;19928;-85
2021/09/13 01:11:41;;;;;;;;;;;13.20;99.90;;;;;;5136504;27;19927;-85
2021/09/13 01:14:10;;;;;;;;;;;13.30;99.90;;;;;;5135920;27;19923;-85
2021/09/13 01:16:38;;;;;;;;;;;13.30;99.90;;;;;;5136656;27;19924;-84
2021/09/13 01:19:06;;;;;;;;;;;13.30;99.90;;;;;;5136486;27;19984;-85
2021/09/13 01:21:34;;;;;;;;;;;13.20;99.90;;;;;;5136521;27;19923;-85
2021/09/13 01:24:09;;;;;;;;;;;13.30;99.90;;;;;;5136467;27;19923;-85
2021/09/13 01:26:38;;;;;;;;;;;13.20;99.90;;;;;;5136605;27;20006;-85
2021/09/13 01:29:09;;;;;;;;;;;13.30;99.90;;;;;;5136410;27;19927;-85
2021/09/13 01:31:36;;;;;;;;;;;13.30;99.90;;;;;;5136244;27;20381;-85
2021/09/13 01:34:04;;;;;;;;;;;13.30;99.90;;;;;;5136257;27;19977;-86
2021/09/13 01:36:32;;;;;;;;;;;13.30;99.90;;;;;;5136343;27;19935;-85
2021/09/13 01:39:01;;;;;;;;;;;13.30;99.90;;;;;;5136215;27;20257;-85
2021/09/13 01:41:30;;;;;;;;;;;13.20;99.90;;;;;;5136630;27;19924;-86
2021/09/13 01:43:57;;;;;;;;;;;13.20;99.90;;;;;;5136458;27;19923;-86
2021/09/13 01:46:24;;;;;;;;;;;13.30;99.90;;;;;;5136181;27;20014;-86
2021/09/13 01:48:51;;;;;;;;;;;13.30;99.90;;;;;;5136225;27;19934;-86
2021/09/13 01:51:17;;;;;;;;;;;13.30;99.90;;;;;;5136591;27;19924;-85
2021/09/13 01:53:46;;;;;;;;;;;13.30;99.90;;;;;;5136310;27;19937;-78
2021/09/13 01:56:13;;;;;;;;;;;13.30;99.90;;;;;;5136027;28;20367;-77
2021/09/13 01:58:41;;;;;;;;;;;13.30;99.90;;;;;;5135259;28;19933;-80
2021/09/13 02:01:08;;;;;;;;;;;13.30;99.90;;;;;;5136028;28;19923;-87
2021/09/13 02:03:35;;;;;;;;;;;13.30;99.90;;;;;;5135902;28;19939;-84
2021/09/13 02:06:02;;;;;;;;;;;13.30;99.90;;;;;;5135596;28;19933;-83
2021/09/13 02:08:30;;;;;;;;;;;13.30;99.90;;;;;;5136110;28;20381;-84
2021/09/13 02:10:59;;;;;;;;;;;13.30;99.90;;;;;;5136189;28;19928;-85
2021/09/13 02:13:27;;;;;;;;;;;13.30;99.90;;;;;;5135993;28;19923;-84
2021/09/13 02:15:56;;;;;;;;;;;13.30;99.90;;;;;;5135788;28;19933;-84
2021/09/13 02:18:24;;;;;;;;;;;13.30;99.90;;;;;;5135843;28;19924;-83
2021/09/13 02:20:51;;;;;;;;;;;13.30;99.90;;;;;;5136226;28;19933;-84
2021/09/13 02:23:19;;;;;;;;;;;13.30;99.90;;;;;;5135994;28;19923;-84
2021/09/13 02:25:48;;;;;;;;;;;13.30;99.90;;;;;;5138760;27;19934;-84
2021/09/13 02:28:16;;;;;;;;;;;13.30;99.90;;;;;;5139966;27;19928;-84
2021/09/13 02:30:44;;;;;;;;;;;13.30;99.90;;;;;;5139802;27;19923;-84
2021/09/13 02:33:12;;;;;;;;;;;13.30;99.90;;;;;;5140087;27;19969;-84
2021/09/13 02:35:39;;;;;;;;;;;13.30;99.90;;;;;;5139513;27;20339;-84
2021/09/13 02:38:06;;;;;;;;;;;13.30;99.90;;;;;;5139429;27;19933;-84
2021/09/13 02:40:33;;;;;;;;;;;13.40;99.90;;;;;;5139706;27;19933;-84
2021/09/13 02:42:59;;;;;;;;;;;13.40;99.90;;;;;;5139741;27;19946;-84
2021/09/13 02:45:26;;;;;;;;;;;13.40;99.90;;;;;;5139541;27;20339;-84
2021/09/13 02:47:53;;;;;;;;;;;13.30;99.90;;;;;;5139564;27;19941;-84
2021/09/13 02:50:22;;;;;;;;;;;13.30;99.90;;;;;;5139704;27;19934;-84
2021/09/13 02:52:48;;;;;;;;;;;13.40;99.90;;;;;;5139604;27;19931;-84
2021/09/13 02:55:15;;;;;;;;;;;13.40;99.90;;;;;;5139404;27;19938;-84
2021/09/13 02:57:42;;;;;;;;;;;13.40;99.90;;;;;;5139292;27;19923;-85
2021/09/13 03:00:10;;;;;;;;;;;13.40;99.90;;;;;;5139394;27;20229;-84
2021/09/13 03:02:37;;;;;;;;;;;13.40;99.90;;;;;;5138533;27;19924;-85
2021/09/13 03:05:04;;;;;;;;;;;13.40;99.90;;;;;;5139054;27;20014;-86
2021/09/13 03:07:32;;;;;;;;;;;13.40;99.90;;;;;;5139218;27;19938;-84
2021/09/13 03:09:59;;;;;;;;;;;13.40;99.90;;;;;;5139150;27;19980;-85
2021/09/13 03:12:27;;;;;;;;;;;13.40;99.90;;;;;;5138958;27;19953;-85
2021/09/13 03:14:54;;;;;;;;;;;13.50;99.90;;;;;;5139398;27;19934;-84
2021/09/13 03:17:20;;;;;;;;;;;13.40;99.90;;;;;;5139043;27;19956;-85
2021/09/13 03:19:47;;;;;;;;;;;13.40;99.90;;;;;;5138798;27;19934;-84
2021/09/13 03:22:14;;;;;;;;;;;13.40;99.90;;;;;;5138914;27;19923;-85
2021/09/13 03:24:42;;;;;;;;;;;13.40;99.90;;;;;;5139137;27;19927;-84
2021/09/13 03:27:09;;;;;;;;;;;13.40;99.90;;;;;;5138804;27;19927;-85
2021/09/13 03:29:36;;;;;;;;;;;13.40;99.90;;;;;;5138888;27;19927;-85
2021/09/13 03:32:03;;;;;;;;;;;13.40;99.90;;;;;;5138847;27;19946;-85
2021/09/13 03:34:30;;;;;;;;;;;13.30;99.90;;;;;;5138860;27;19934;-84
2021/09/13 03:36:59;;;;;;;;;;;13.30;99.90;;;;;;5137801;27;19924;-84
2021/09/13 03:39:25;;;;;;;;;;;13.30;99.90;;;;;;5138753;27;19935;-85
2021/09/13 03:41:54;;;;;;;;;;;13.30;99.90;;;;;;5138514;27;19923;-85
2021/09/13 03:44:21;;;;;;;;;;;13.30;99.90;;;;;;5138782;27;19973;-84
2021/09/13 03:46:47;;;;;;;;;;;13.30;99.90;;;;;;5138498;27;19923;-85
2021/09/13 03:49:14;;;;;;;;;;;13.30;99.90;;;;;;5138453;27;19933;-84
2021/09/13 03:51:41;;;;;;;;;;;13.30;99.90;;;;;;5138341;27;19927;-84
2021/09/13 03:54:08;;;;;;;;;;;13.30;99.90;;;;;;5138366;27;19923;-84
2021/09/13 03:56:35;;;;;;;;;;;13.40;99.90;;;;;;5138094;27;19924;-85
2021/09/13 03:59:03;;;;;;;;;;;13.40;99.90;;;;;;5138374;27;19923;-85
2021/09/13 04:01:31;;;;;;;;;;;13.40;99.90;;;;;;5138146;27;20029;-84
2021/09/13 04:04:01;;;;;;;;;;;13.40;99.90;;;;;;5138124;27;20266;-85
2021/09/13 04:06:38;;;;;;;;;;;13.40;99.90;;;;;;5137996;27;19923;-83
2021/09/13 04:11:53;;;;;;;;;;;13.40;99.90;;;;;;5096670;27;19946;-84
2021/09/13 04:14:22;;;;;;;;;;;13.40;99.90;;;;;;5137973;27;20397;-85
2021/09/13 04:16:48;;;;;;;;;;;13.40;99.90;;;;;;5137808;27;19930;-84
2021/09/13 04:19:15;;;;;;;;;;;13.40;99.90;;;;;;5137758;27;20355;-85
2021/09/13 04:21:42;;;;;;;;;;;13.40;99.90;;;;;;5137732;27;20000;-85
2021/09/13 04:24:09;;;;;;;;;;;13.40;99.90;;;;;;5137649;27;19924;-85
2021/09/13 04:26:36;;;;;;;;;;;13.40;99.90;;;;;;5137805;27;20340;-84
2021/09/13 04:29:03;;;;;;;;;;;13.40;99.90;;;;;;5137614;27;19930;-84
2021/09/13 04:31:31;;;;;;;;;;;13.40;99.90;;;;;;5137280;27;20343;-84
2021/09/13 04:33:58;;;;;;;;;;;13.40;99.90;;;;;;5137468;27;19937;-85
2021/09/13 04:36:25;;;;;;;;;;;13.40;99.90;;;;;;5137339;27;19923;-85
2021/09/13 04:38:51;;;;;;;;;;;13.50;99.90;;;;;;5137486;27;19923;-84
2021/09/13 04:41:18;;;;;;;;;;;13.40;99.90;;;;;;5137651;27;19923;-85
2021/09/13 04:43:45;;;;;;;;;;;13.40;99.90;;;;;;5137416;27;19934;-85
2021/09/13 04:46:12;;;;;;;;;;;13.40;99.90;;;;;;5137283;27;20274;-85
2021/09/13 04:48:40;;;;;;;;;;;13.40;99.90;;;;;;5136017;27;20369;-85
2021/09/13 04:51:07;;;;;;;;;;;13.40;99.90;;;;;;5137187;27;19965;-84
2021/09/13 04:53:34;;;;;;;;;;;13.40;99.90;;;;;;5137232;27;19923;-85
2021/09/13 04:56:01;;;;;;;;;;;13.40;99.90;;;;;;5137374;27;20225;-85
2021/09/13 04:58:28;;;;;;;;;;;13.40;99.90;;;;;;5137162;27;19970;-85
2021/09/13 05:00:54;;;;;;;;;;;13.40;99.90;;;;;;5136854;27;19945;-85
2021/09/13 05:03:21;;;;;;;;;;;13.40;99.90;;;;;;5137155;27;20285;-85
2021/09/13 05:05:49;;;;;;;;;;;13.40;99.90;;;;;;5136712;27;20336;-85
2021/09/13 05:08:16;;;;;;;;;;;13.30;99.90;;;;;;5136936;27;20355;-85
2021/09/13 05:10:43;;;;;;;;;;;13.40;99.90;;;;;;5136909;27;19999;-85
2021/09/13 05:13:10;;;;;;;;;;;13.40;99.90;;;;;;5136850;27;19924;-84
2021/09/13 05:15:37;;;;;;;;;;;13.30;99.90;;;;;;5136789;27;19931;-85
2021/09/13 05:18:04;;;;;;;;;;;13.30;99.90;;;;;;5136574;27;19924;-85
2021/09/13 05:20:31;;;;;;;;;;;13.30;99.90;;;;;;5136677;27;19941;-85
2021/09/13 05:22:59;;;;;;;;;;;13.40;99.90;;;;;;5136481;27;20369;-84
2021/09/13 05:25:26;;;;;;;;;;;13.40;99.90;;;;;;5136569;27;19923;-84
2021/09/13 05:27:53;;;;;;;;;;;13.40;99.90;;;;;;5136786;27;19923;-85
2021/09/13 05:30:19;;;;;;;;;;;13.40;99.90;;;;;;5136524;27;19933;-84
2021/09/13 05:32:46;;;;;;;;;;;13.40;99.90;;;;;;5136732;27;20022;-84
2021/09/13 05:35:13;;;;;;;;;;;13.40;99.90;;;;;;5136393;27;19923;-84
2021/09/13 05:37:40;;;;;;;;;;;13.30;99.90;;;;;;5136485;27;19950;-84
2021/09/13 05:40:09;;;;;;;;;;;13.20;99.90;;;;;;5136326;27;20347;-84
2021/09/13 05:42:36;;;;;;;;;;;13.20;99.90;;;;;;5136411;27;19929;-85
2021/09/13 05:45:03;;;;;;;;;;;13.10;99.90;;;;;;5136211;27;19924;-85
2021/09/13 05:47:30;;;;;;;;;;;13.10;99.90;;;;;;5136254;27;20366;-85
2021/09/13 05:49:57;;;;;;;;;;;13.00;99.90;;;;;;5136243;27;19923;-85
2021/09/13 05:52:24;;;;;;;;;;;13.00;99.90;;;;;;5136089;27;19924;-84
2021/09/13 05:54:51;;;;;;;;;;;13.00;99.90;;;;;;5136095;27;20341;-85
2021/09/13 05:57:19;;;;;;;;;;;13.00;99.90;;;;;;5136337;28;20362;-85
2021/09/13 05:59:46;;;;;;;;;;;12.90;99.90;;;;;;5135653;27;19923;-84
2021/09/13 06:02:13;;;;;;;;;;;13.00;99.90;;;;;;5136087;28;19923;-84
2021/09/13 06:04:42;;;;;;;;;;;12.90;99.90;;;;;;5136214;28;19923;-84
2021/09/13 06:07:09;;;;;;;;;;;12.90;99.90;;;;;;5135733;28;20365;-83
2021/09/13 06:09:36;;;;;;;;;;;12.90;99.90;;;;;;5136034;28;19934;-83
2021/09/13 06:12:03;;;;;;;;;;;12.80;99.90;;;;;;5135960;28;19923;-84
2021/09/13 06:14:31;;;;;;;;;;;12.80;99.90;;;;;;5136198;28;19923;-82
2021/09/13 06:16:58;;;;;;;;;;;12.80;99.90;;;;;;5135906;28;19929;-85
2021/09/13 06:19:25;;;;;;;;;;;12.80;99.90;;;;;;5135880;28;19923;-84
2021/09/13 06:21:52;;;;;;;;;;;12.80;99.90;;;;;;5135975;28;19923;-84
2021/09/13 06:24:18;;;;;;;;;;;12.80;99.90;;;;;;5135860;28;20378;-84
2021/09/13 06:26:45;;;;;;;;;;;12.80;99.90;;;;;;5135769;28;19934;-83
2021/09/13 06:29:12;;;;;;;;;;;12.90;99.90;;;;;;5135780;28;19923;-83
2021/09/13 06:31:40;;;;;;;;;;;12.90;99.90;;;;;;5135818;28;20344;-84
2021/09/13 06:34:08;;;;;;;;;;;12.80;99.90;;;;;;5135738;28;19923;-84
2021/09/13 06:36:35;;;;;;;;;;;12.80;99.90;;;;;;5135681;28;19924;-84
2021/09/13 06:39:02;;;;;;;;;;;12.80;99.90;;;;;;5135714;28;19933;-83
2021/09/13 06:41:29;;;;;;;;;;;12.90;99.90;;;;;;5135620;28;19938;-83
2021/09/13 06:43:55;;;;;;;;;;;12.90;99.90;;;;;;5135878;28;19934;-83
2021/09/13 06:46:25;;;;;;;;;;;12.90;99.90;;;;;;5135623;28;19973;-84
2021/09/13 06:48:53;;;;;;;;;;;12.80;99.90;;;;;;5135754;28;19924;-84
2021/09/13 06:51:20;;;;;;;;;;;12.90;99.90;;;;;;5135715;28;19924;-84
2021/09/13 06:53:47;;;;;;;;;;;12.90;99.90;;;;;;5135617;28;19923;-84
2021/09/13 06:56:14;;;;;;;;;;;12.90;99.90;;;;;;5135427;28;20328;-83
2021/09/13 06:58:40;;;;;;;;;;;12.90;99.90;;;;;;5135533;28;19934;-84
2021/09/13 07:01:07;;;;;;;;;;;12.90;99.90;;;;;;5135516;28;19930;-84
2021/09/13 07:03:34;;;;;;;;;;;12.90;99.90;;;;;;5135400;28;19924;-83
2021/09/13 07:06:03;;;;;;;;;;;13.00;99.90;;;;;;5135230;28;19923;-84
2021/09/13 07:08:29;;;;;;;;;;;13.00;99.90;;;;;;5135447;28;19928;-82
2021/09/13 07:10:56;;;;;;;;;;;13.00;99.90;;;;;;5135597;27;20031;-84
2021/09/13 07:13:23;;;;;;;;;;;13.00;99.90;;;;;;5138782;27;19924;-83
2021/09/13 07:15:50;;;;;;;;;;;13.00;99.90;;;;;;5139144;27;19924;-83
2021/09/13 07:18:17;;;;;;;;;;;13.00;99.90;;;;;;5139097;27;19930;-82
2021/09/13 07:20:44;;;;;;;;;;;13.00;99.90;;;;;;5139274;27;20010;-82
2021/09/13 07:23:12;;;;;;;;;;;13.00;99.90;;;;;;5138982;27;19934;-82
2021/09/13 07:25:39;;;;;;;;;;;13.00;99.90;;;;;;5139035;27;19923;-83
2021/09/13 07:28:06;;;;;;;;;;;13.00;99.90;;;;;;5138952;27;19930;-85
2021/09/13 07:30:33;;;;;;;;;;;13.00;99.90;;;;;;5138704;27;20270;-78
2021/09/13 07:32:59;;;;;;;;;;;13.00;99.90;;;;;;5138795;27;19928;-83
2021/09/13 07:35:26;;;;;;;;;;;13.00;99.90;;;;;;5138711;27;19923;-84
2021/09/13 07:37:54;;;;;;;;;;;13.00;99.90;;;;;;5138716;27;20378;-84
2021/09/13 07:40:22;;;;;;;;;;;13.00;99.90;;;;;;5138874;27;19931;-83
2021/09/13 07:42:49;;;;;;;;;;;13.00;99.90;;;;;;5138822;27;20385;-83
2021/09/13 07:45:16;;;;;;;;;;;13.10;99.90;;;;;;5138453;27;20377;-84
2021/09/13 07:47:42;;;;;;;;;;;13.10;99.90;;;;;;5138333;27;19924;-84
2021/09/13 07:50:09;;;;;;;;;;;13.10;99.90;;;;;;5138416;27;19927;-83
2021/09/13 07:52:36;;;;;;;;;;;13.20;99.90;;;;;;5138440;27;20022;-84
2021/09/13 07:55:03;;;;;;;;;;;13.20;99.90;;;;;;5138266;27;19924;-84
2021/09/13 07:57:32;;;;;;;;;;;13.20;99.90;;;;;;5138349;27;20290;-84
2021/09/13 08:00:01;;;;;;;;;;;13.20;99.90;;;;;;5137945;27;19954;-84
2021/09/13 08:02:33;;;;;;;;;;;13.20;99.90;;;;;;5138009;27;20342;-84
2021/09/13 08:05:01;;;;;;;;;;;13.20;99.90;;;;;;5138144;27;19927;-84
2021/09/13 08:07:29;;;;;;;;;;;13.20;99.90;;;;;;5137906;27;19931;-84
2021/09/13 08:09:57;;;;;;;;;;;13.20;99.90;;;;;;5137974;27;19923;-84
2021/09/13 08:12:25;;;;;;;;;;;13.30;99.90;;;;;;5138025;27;19923;-83
2021/09/13 08:14:58;;;;;;;;;;;13.40;99.90;;;;;;5138068;27;19923;-84
2021/09/13 08:17:26;;;;;;;;;;;13.40;99.90;;;;;;5137923;27;20373;-84
2021/09/13 08:19:54;;;;;;;;;;;13.40;99.90;;;;;;5137539;27;20255;-84
2021/09/13 08:22:22;;;;;;;;;;;13.40;99.90;;;;;;5137838;27;19923;-84
2021/09/13 08:24:51;;;;;;;;;;;13.40;99.90;;;;;;5137766;27;19934;-84
2021/09/13 08:27:20;;;;;;;;;;;13.50;99.90;;;;;;5137756;27;19923;-84
2021/09/13 08:29:48;;;;;;;;;;;13.50;99.90;;;;;;5137557;27;19933;-84
2021/09/13 08:32:18;;;;;;;;;;;13.60;99.90;;;;;;5137914;27;19934;-85
2021/09/13 08:34:44;;;;;;;;;;;13.60;99.90;;;;;;5137417;27;20332;-84
2021/09/13 08:37:12;;;;;;;;;;;13.60;99.90;;;;;;5137335;27;19934;-85
2021/09/13 08:39:39;;;;;;;;;;;13.70;99.90;;;;;;5137285;27;19932;-84
2021/09/13 08:42:07;;;;;;;;;;;13.70;99.90;;;;;;5137337;27;19923;-84
2021/09/13 08:44:36;;;;;;;;;;;13.70;99.90;;;;;;5137326;27;20037;-85
2021/09/13 08:47:07;;;;;;;;;;;13.70;99.90;;;;;;5136417;27;19930;-84
2021/09/13 08:49:38;;;;;;;;;;;13.80;99.90;;;;;;5137479;27;19933;-85
2021/09/13 08:52:07;;;;;;;;;;;13.90;99.90;;;;;;5137157;27;20034;-85
2021/09/13 08:54:37;;;;;;;;;;;13.90;99.90;;;;;;5137176;27;20317;-86
2021/09/13 08:57:06;;;;;;;;;;;13.90;99.90;;;;;;5137144;27;19930;-84
2021/09/13 08:59:37;;;;;;;;;;;14.00;99.90;;;;;;5137142;27;19923;-86
2021/09/13 09:02:04;;;;;;;;;;;14.00;99.90;;;;;;5136885;27;19934;-86
2021/09/13 09:04:32;;;;;;;;;;;14.10;99.90;;;;;;5136854;27;19934;-86
2021/09/13 09:07:11;;;;;;;;;;;14.10;99.90;;;;;;5136704;27;20026;-85
2021/09/13 09:09:39;;;;;;;;;;;14.10;99.90;;;;;;5136826;27;19962;-85
2021/09/13 09:12:09;;;;;;;;;;;14.20;99.90;;;;;;5136646;27;20006;-85
2021/09/13 09:14:39;;;;;;;;;;;14.20;99.90;;;;;;5136935;27;19923;-85
2021/09/13 09:17:08;;;;;;;;;;;14.20;99.90;;;;;;5136755;27;19923;-86
2021/09/13 09:19:37;;;;;;;;;;;14.20;99.90;;;;;;5136657;27;20014;-86
2021/09/13 09:22:22;;;;;;;;;;;14.20;99.90;;;;;;5136594;27;20262;-86
2021/09/13 09:24:49;;;;;;;;;;;14.30;99.90;;;;;;5136828;27;19924;-86
2021/09/13 09:27:18;;;;;;;;;;;14.30;99.90;;;;;;5136440;27;20308;-86
2021/09/13 09:29:46;;;;;;;;;;;14.30;99.90;;;;;;5135781;27;19934;-86
2021/09/13 09:32:23;;;;;;;;;;;14.40;99.90;;;;;;5136480;27;19934;-86
2021/09/13 09:34:51;;;;;;;;;;;14.40;99.90;;;;;;5135502;27;20350;-86
2021/09/13 09:37:19;;;;;;;;;;;14.40;99.90;;;;;;5136009;27;19945;-86
2021/09/13 09:39:53;;;;;;;;;;;14.40;99.90;;;;;;5136443;27;19963;-85
2021/09/13 09:42:31;;;;;;;;;;;14.40;99.90;;;;;;5136468;27;20434;-85
2021/09/13 09:44:59;;;;;;;;;;;14.40;99.90;;;;;;5136197;27;19923;-86
2021/09/13 09:47:27;;;;;;;;;;;14.50;99.90;;;;;;5136097;27;19923;-86
2021/09/13 09:49:56;;;;;;;;;;;14.50;99.90;;;;;;5136241;27;19923;-85
2021/09/13 09:52:31;;;;;;;;;;;14.50;99.90;;;;;;5136094;27;19924;-86
2021/09/13 09:55:11;;;;;;;;;;;14.50;99.90;;;;;;5136078;27;19924;-86
2021/09/13 09:57:39;;;;;;;;;;;14.50;99.90;;;;;;5136163;28;19923;-85
2021/09/13 10:00:33;;;;;;;;;;;14.60;99.90;;;;;;5136030;28;19934;-86
2021/09/13 10:03:01;;;;;;;;;;;14.60;99.90;;;;;;5033464;28;20357;-86
2021/09/13 10:05:32;;;;;;;;;;;14.70;99.90;;;;;;5033071;28;19925;-87
2021/09/13 10:08:00;;;;;;;;;;;14.80;99.90;;;;;;5033417;28;20026;-87
2021/09/13 10:10:31;;;;;;;;;;;14.90;99.90;;;;;;5033209;28;19948;-86
2021/09/13 10:13:00;;;;;;;;;;;14.90;99.90;;;;;;5033441;28;19925;-88
2021/09/13 10:15:28;;;;;;;;;;;15.00;99.90;;;;;;5033771;28;19925;-86
2021/09/13 10:17:57;;;;;;;;;;;15.10;99.90;;;;;;5033311;28;20242;-87
2021/09/13 10:20:25;;;;;;;;;;;15.20;99.90;;;;;;5033346;28;19932;-87
2021/09/13 10:22:54;;;;;;;;;;;15.20;99.90;;;;;;5033240;28;20316;-87
2021/09/13 10:25:21;;;;;;;;;;;15.30;99.90;;;;;;5032326;28;20356;-87
2021/09/13 10:27:51;;;;;;;;;;;15.40;99.90;;;;;;5033076;28;20361;-87
2021/09/13 10:30:19;;;;;;;;;;;15.50;99.90;;;;;;5033197;28;20305;-87
2021/09/13 10:32:46;;;;;;;;;;;15.50;99.90;;;;;;5031992;28;19925;-87
2021/09/13 10:35:13;;;;;;;;;;;15.50;99.90;;;;;;5033133;28;19925;-86
2021/09/13 10:37:41;;;;;;;;;;;15.50;99.90;;;;;;5036442;28;20268;-87
2021/09/13 10:40:09;;;;;;;;;;;15.50;99.90;;;;;;5094834;28;19931;-87
2021/09/13 10:42:38;;;;;;;;;;;15.40;99.90;;;;;;5094814;28;20397;-87
2021/09/13 10:45:21;;;;;;;;;;;15.40;99.90;;;;;;5095148;28;19924;-85
2021/09/13 10:47:50;;;;;;;;;;;15.40;99.90;;;;;;5098750;28;19924;-87
2021/09/13 10:50:24;;;;;;;;;;;15.30;99.90;;;;;;5098980;28;20246;-86
2021/09/13 10:52:51;;;;;;;;;;;15.30;99.90;;;;;;5098707;28;20352;-85
2021/09/13 10:55:22;;;;;;;;;;;15.30;99.90;;;;;;5098882;28;19981;-86
2021/09/13 10:57:52;;;;;;;;;;;15.30;99.90;;;;;;5097978;28;19930;-86
2021/09/13 11:00:34;;;;;;;;;;;15.20;99.90;;;;;;5098511;28;20368;-86
2021/09/13 11:03:16;;;;;;;;;;;15.20;99.90;;;;;;5098240;28;19924;-85
2021/09/13 11:05:44;;;;;;;;;;;15.10;99.90;;;;;;5105533;27;20266;-86
2021/09/13 11:08:23;;;;;;;;;;;15.10;99.90;;;;;;5138486;27;19927;-85
2021/09/13 11:10:50;;;;;;;;;;;15.10;99.90;;;;;;5139495;27;19934;-86
2021/09/13 11:13:17;;;;;;;;;;;15.10;99.90;;;;;;5139286;27;19924;-86
2021/09/13 11:15:47;;;;;;;;;;;15.10;99.90;;;;;;5139062;27;19923;-85
2021/09/13 11:18:14;;;;;;;;;;;15.10;99.90;;;;;;5138991;27;19930;-86
2021/09/13 11:20:40;;;;;;;;;;;15.00;99.90;;;;;;5138955;27;19923;-86
2021/09/13 11:23:09;;;;;;;;;;;15.00;99.90;;;;;;5139091;27;19927;-85
2021/09/13 11:25:35;;;;;;;;;;;15.00;99.90;;;;;;5138846;27;19924;-85
2021/09/13 11:28:02;;;;;;;;;;;15.00;99.90;;;;;;5138859;27;19933;-86
2021/09/13 11:30:41;;;;;;;;;;;15.00;99.90;;;;;;5138744;27;19924;-86
2021/09/13 11:33:08;;;;;;;;;;;15.00;99.90;;;;;;5138900;27;19933;-86
2021/09/13 11:35:34;;;;;;;;;;;15.10;99.90;;;;;;5138608;27;19930;-85
2021/09/13 11:38:01;;;;;;;;;;;15.10;99.90;;;;;;5138599;27;19923;-85
2021/09/13 11:40:30;;;;;;;;;;;15.10;99.90;;;;;;5138697;27;19928;-85
2021/09/13 11:42:57;;;;;;;;;;;15.10;99.90;;;;;;5138825;27;19934;-85
2021/09/13 11:45:24;;;;;;;;;;;15.10;99.90;;;;;;5138797;27;19931;-85
2021/09/13 11:47:51;;;;;;;;;;;15.10;99.90;;;;;;5138596;27;19933;-85
2021/09/13 11:50:18;;;;;;;;;;;15.20;99.90;;;;;;5138418;27;19970;-85
2021/09/13 11:52:45;;;;;;;;;;;15.20;99.90;;;;;;5138481;27;19980;-86
2021/09/13 11:55:12;;;;;;;;;;;15.20;99.90;;;;;;5138240;27;19946;-86
2021/09/13 11:57:41;;;;;;;;;;;15.30;99.90;;;;;;5137753;27;19924;-86
2021/09/13 12:00:09;;;;;;;;;;;15.30;99.90;;;;;;5138228;27;19924;-86
2021/09/13 12:02:36;;;;;;;;;;;15.40;99.90;;;;;;5138333;27;19923;-86
2021/09/13 12:05:06;;;;;;;;;;;15.50;99.90;;;;;;5138222;27;19934;-85
2021/09/13 12:07:33;;;;;;;;;;;15.50;99.90;;;;;;5137953;27;19927;-86
2021/09/13 12:09:59;;;;;;;;;;;15.50;99.90;;;;;;5137918;27;19931;-85
2021/09/13 12:12:29;;;;;;;;;;;15.60;99.90;;;;;;5137789;27;19923;-86
2021/09/13 12:15:05;;;;;;;;;;;15.60;99.90;;;;;;5138005;27;20018;-85
2021/09/13 12:17:39;;;;;;;;;;;15.70;99.90;;;;;;5137863;27;19923;-86
2021/09/13 12:20:15;;;;;;;;;;;15.70;99.90;;;;;;5137936;27;20332;-87
2021/09/13 12:22:43;;;;;;;;;;;15.70;99.90;;;;;;5138144;27;20326;-86
2021/09/13 12:25:12;;;;;;;;;;;15.80;99.90;;;;;;5137965;27;19923;-86
2021/09/13 12:27:44;;;;;;;;;;;15.80;99.90;;;;;;5137711;27;19934;-87
2021/09/13 12:30:17;;;;;;;;;;;15.90;99.90;;;;;;5134728;27;19927;-86
2021/09/13 12:32:52;;;;;;;;;;;15.90;99.90;;;;;;5138000;27;19958;-87
2021/09/13 12:35:30;;;;;;;;;;;15.90;99.90;;;;;;5137627;27;20328;-87
2021/09/13 12:38:01;;;;;;;;;;;15.90;99.90;;;;;;5137439;27;19934;-86
2021/09/13 12:40:30;;;;;;;;;;;15.90;99.90;;;;;;5137519;27;19924;-85
2021/09/13 12:43:00;;;;;;;;;;;15.90;99.90;;;;;;5135946;27;19934;-84
2021/09/13 12:45:30;;;;;;;;;;;16.10;99.90;;;;;;5135135;27;19931;-86
2021/09/13 12:47:59;;;;;;;;;;;16.20;99.90;;;;;;5137232;27;19923;-86
2021/09/13 12:50:36;;;;;;;;;;;16.30;99.90;;;;;;5137297;27;19924;-86
2021/09/13 12:53:06;;;;;;;;;;;16.30;99.90;;;;;;5137228;27;20275;-85
2021/09/13 12:55:40;;;;;;;;;;;16.40;99.90;;;;;;5137506;27;19938;-86
2021/09/13 12:58:23;;;;;;;;;;;16.60;99.90;;;;;;5137063;27;20266;-86
2021/09/13 13:00:53;;;;;;;;;;;16.70;99.90;;;;;;5135955;27;19928;-86
2021/09/13 13:03:21;;;;;;;;;;;16.80;99.90;;;;;;5137153;27;19973;-86
2021/09/13 13:05:53;;;;;;;;;;;16.90;99.90;;;;;;5136628;27;20029;-86
2021/09/13 13:08:21;;;;;;;;;;;16.90;99.90;;;;;;5137007;27;19963;-86
2021/09/13 13:10:49;;;;;;;;;;;16.90;99.90;;;;;;5136122;27;19923;-86
2021/09/13 13:13:17;;;;;;;;;;;17.00;99.90;;;;;;5136684;27;19923;-86
2021/09/13 13:15:46;;;;;;;;;;;17.10;99.90;;;;;;5137090;27;20010;-85
2021/09/13 13:18:16;;;;;;;;;;;17.20;99.90;;;;;;5136384;27;19935;-85
2021/09/13 13:20:45;;;;;;;;;;;17.20;99.90;;;;;;5136668;27;19977;-86
2021/09/13 13:23:13;;;;;;;;;;;17.30;99.90;;;;;;5136830;27;19938;-86
2021/09/13 13:25:41;;;;;;;;;;;17.30;99.90;;;;;;5136587;27;19923;-85
2021/09/13 13:28:10;;;;;;;;;;;17.40;99.90;;;;;;5136731;27;19923;-85
2021/09/13 13:30:38;;;;;;;;;;;17.50;99.90;;;;;;5136262;27;19924;-84
2021/09/13 13:33:09;;;;;;;;;;;17.50;99.90;;;;;;5136233;27;19923;-85
2021/09/13 13:35:43;;;;;;;;;;;17.60;99.90;;;;;;5118464;27;19924;-84
2021/09/13 13:38:13;;;;;;;;;;;17.60;99.90;;;;;;5136249;27;20301;-85
2021/09/13 13:40:41;;;;;;;;;;;17.70;99.90;;;;;;5136275;27;19923;-85
2021/09/13 13:43:11;;;;;;;;;;;17.60;99.90;;;;;;5136225;27;19934;-85
2021/09/13 13:45:39;;;;;;;;;;;17.60;99.90;;;;;;5136292;27;19931;-85
2021/09/13 13:48:07;;;;;;;;;;;17.50;99.90;;;;;;5136053;27;19923;-85
2021/09/13 13:50:34;;;;;;;;;;;17.50;99.90;;;;;;5136338;27;19934;-86
2021/09/13 13:53:03;;;;;;;;;;;17.50;99.90;;;;;;5136268;27;19923;-85
2021/09/13 13:55:32;;;;;;;;;;;17.40;99.90;;;;;;5136307;27;19927;-85
2021/09/13 13:57:59;;;;;;;;;;;17.40;99.90;;;;;;5136092;27;20014;-85
2021/09/13 14:00:29;;;;;;;;;;;17.40;99.90;;;;;;5135819;27;19924;-85
2021/09/13 14:02:57;;;;;;;;;;;17.40;99.90;;;;;;5136192;28;20014;-84
2021/09/13 14:05:26;;;;;;;;;;;17.50;99.90;;;;;;5135942;28;19927;-85
2021/09/13 14:07:55;;;;;;;;;;;17.60;99.90;;;;;;5132526;28;19923;-85
2021/09/13 14:10:25;;;;;;;;;;;17.60;99.90;;;;;;5135430;28;20267;-85
2021/09/13 14:12:53;;;;;;;;;;;17.70;99.90;;;;;;5135767;28;20340;-85
2021/09/13 14:15:21;;;;;;;;;;;17.70;99.90;;;;;;5136248;28;19923;-85
2021/09/13 14:17:49;;;;;;;;;;;17.80;99.90;;;;;;5135974;28;19923;-85
2021/09/13 14:20:17;;;;;;;;;;;17.80;99.90;;;;;;5136345;27;19970;-84
2021/09/13 14:22:45;;;;;;;;;;;17.70;99.90;;;;;;5140121;27;19937;-85
2021/09/13 14:25:13;;;;;;;;;;;17.60;99.90;;;;;;5140135;27;19927;-86